Time;durP1;ratioP1;P1;durP2;ratioP2;P2;SDS_P1;SDS_P2;PMS_P1;PMS_P2;Temp;Humidity;BMP_temperature;BMP_pressure;BME280_temperature;BME280_humidity;BME280_pressure;Samples;Min_cycle;Max_cycle;Signal;HPM_P1;HPM_P2
2022/08/27 00:00:14;;;;;;;19.40;7.47;;;19.30;99.90;;;;;;4991588;28;20121;-89
2022/08/27 00:02:41;;;;;;;12.30;6.50;;;19.30;99.90;;;;;;4991569;28;20030;-89
2022/08/27 00:05:07;;;;;;;20.92;7.88;;;19.30;99.90;;;;;;4993258;28;20062;-89
2022/08/27 00:07:33;;;;;;;17.98;7.40;;;19.10;99.90;;;;;;4992080;28;20117;-89
2022/08/27 00:09:59;;;;;;;16.05;6.95;;;19.10;99.90;;;;;;4991297;28;20058;-89
2022/08/27 00:12:24;;;;;;;13.77;7.32;;;19.10;99.90;;;;;;4992243;28;20050;-89
2022/08/27 00:14:50;;;;;;;15.85;7.75;;;19.10;99.90;;;;;;4992008;28;20030;-89
2022/08/27 00:17:16;;;;;;;14.90;7.85;;;19.00;99.90;;;;;;4991884;28;20026;-89
2022/08/27 00:19:42;;;;;;;19.98;7.65;;;19.00;99.90;;;;;;4991943;28;20710;-90
2022/08/27 00:22:09;;;;;;;15.40;6.72;;;18.90;99.90;;;;;;4992166;28;20029;-90
2022/08/27 00:24:35;;;;;;;13.13;7.93;;;19.00;99.90;;;;;;4991570;28;20038;-90
2022/08/27 00:27:01;;;;;;;16.53;7.20;;;19.00;99.90;;;;;;4995797;28;20038;-90
2022/08/27 00:29:27;;;;;;;23.50;7.72;;;18.90;99.90;;;;;;4995682;28;20478;-89
2022/08/27 00:31:54;;;;;;;15.50;7.18;;;18.90;99.90;;;;;;4995138;28;20041;-90
2022/08/27 00:34:21;;;;;;;18.70;8.10;;;18.60;99.90;;;;;;4978688;28;20022;-90
2022/08/27 00:36:47;;;;;;;17.98;8.80;;;18.50;99.90;;;;;;4996143;28;20023;-89
2022/08/27 00:39:12;;;;;;;17.55;7.65;;;18.30;99.90;;;;;;4995109;28;20445;-90
2022/08/27 00:41:40;;;;;;;14.32;7.35;;;18.30;99.90;;;;;;4995155;28;20027;-87
2022/08/27 00:44:06;;;;;;;21.38;7.55;;;18.20;99.90;;;;;;4994899;28;20026;-88
2022/08/27 00:46:49;;;;;;;18.77;7.88;;;18.20;99.90;;;;;;4995094;28;20044;-88
2022/08/27 00:49:30;;;;;;;19.08;8.25;;;18.20;99.90;;;;;;4996599;28;20034;-88
2022/08/27 00:52:04;;;;;;;22.27;7.35;;;18.20;99.90;;;;;;4997656;28;20534;-87
2022/08/27 00:54:30;;;;;;;22.20;8.23;;;18.20;99.90;;;;;;4995807;28;20030;-88
2022/08/27 00:56:57;;;;;;;17.77;8.23;;;18.30;99.90;;;;;;4994071;28;20058;-88
2022/08/27 00:59:28;;;;;;;16.63;7.33;;;18.40;99.90;;;;;;4995849;28;20026;-88
2022/08/27 01:04:41;;;;;;;14.48;7.78;;;18.40;99.90;;;;;;4995897;28;20057;-87
2022/08/27 01:07:08;;;;;;;17.40;8.25;;;18.30;99.90;;;;;;4994299;28;20032;-87
2022/08/27 01:09:34;;;;;;;;;;;18.20;99.90;;;;;;4995224;28;20101;-88
2022/08/27 01:12:00;;;;;;;15.50;7.05;;;18.10;99.90;;;;;;4995940;28;19952;-88
2022/08/27 01:14:27;;;;;;;16.55;7.60;;;18.00;99.90;;;;;;5006687;28;20022;-87
2022/08/27 01:16:56;;;;;;;15.32;8.05;;;18.00;99.90;;;;;;5018674;28;20037;-88
2022/08/27 01:19:47;;;;;;;16.90;8.30;;;18.00;99.90;;;;;;5017223;28;20030;-89
2022/08/27 01:22:34;;;;;;;14.88;8.07;;;17.90;99.90;;;;;;5018490;28;20079;-88
2022/08/27 01:25:05;;;;;;;23.75;7.85;;;17.70;99.90;;;;;;4982414;28;20045;-87
2022/08/27 01:27:31;;;;;;;14.23;7.72;;;17.70;99.90;;;;;;4996292;28;20434;-89
2022/08/27 01:29:57;;;;;;;17.23;7.45;;;17.70;99.90;;;;;;4978071;28;20038;-88
2022/08/27 01:32:27;;;;;;;21.80;8.77;;;17.70;99.90;;;;;;4995211;28;20038;-87
2022/08/27 01:34:54;;;;;;;15.80;8.48;;;17.60;99.90;;;;;;4994073;28;20019;-88
2022/08/27 01:37:21;;;;;;;23.23;8.60;;;17.60;99.90;;;;;;4992415;28;20434;-88
2022/08/27 01:39:47;;;;;;;17.10;7.75;;;17.70;99.90;;;;;;4993623;28;20083;-89
2022/08/27 01:42:29;;;;;;;19.05;8.45;;;17.60;99.90;;;;;;4993841;28;20022;-87
2022/08/27 01:45:02;;;;;;;15.32;8.10;;;17.60;99.90;;;;;;4993692;28;20031;-88
2022/08/27 01:47:28;;;;;;;16.20;8.13;;;17.70;99.90;;;;;;5023583;23;20063;-55
2022/08/27 01:49:55;;;;;;;18.35;7.82;;;17.60;99.90;;;;;;4973104;28;20070;-55
2022/08/27 01:52:25;;;;;;;15.45;7.43;;;17.60;99.90;;;;;;4973302;28;20022;-56
2022/08/27 01:54:52;;;;;;;14.30;7.22;;;17.60;99.90;;;;;;4973233;28;20027;-55
2022/08/27 01:57:19;;;;;;;12.15;7.47;;;17.50;99.90;;;;;;4972798;28;20113;-55
2022/08/27 01:59:45;;;;;;;16.30;7.90;;;17.60;99.90;;;;;;4973130;28;20027;-56
2022/08/27 02:02:13;;;;;;;19.63;7.45;;;17.60;99.90;;;;;;4977432;28;20027;-55
2022/08/27 02:04:39;;;;;;;12.15;7.65;;;17.60;99.90;;;;;;4987986;28;20728;-55
2022/08/27 02:07:06;;;;;;;16.65;8.02;;;17.60;99.90;;;;;;4973227;28;20046;-55
2022/08/27 02:09:32;;;;;;;14.38;8.35;;;17.60;99.90;;;;;;4972896;28;20023;-56
2022/08/27 02:11:59;;;;;;;16.73;7.50;;;17.50;99.90;;;;;;4972828;28;20034;-55
2022/08/27 02:14:26;;;;;;;14.43;8.15;;;17.50;99.90;;;;;;4973120;28;20050;-56
2022/08/27 02:16:52;;;;;;;17.02;8.38;;;17.50;99.90;;;;;;4972977;28;20023;-55
2022/08/27 02:19:18;;;;;;;13.23;7.72;;;17.40;99.90;;;;;;4972691;28;20097;-55
2022/08/27 02:21:44;;;;;;;15.52;7.97;;;17.30;99.90;;;;;;4972865;28;20026;-55
2022/08/27 02:24:09;;;;;;;17.25;7.57;;;17.10;99.90;;;;;;4972557;28;20049;-55
2022/08/27 02:26:35;;;;;;;17.98;9.13;;;17.20;99.90;;;;;;4972477;28;20089;-55
2022/08/27 02:29:01;;;;;;;16.08;8.77;;;17.10;99.90;;;;;;4972619;28;20398;-55
2022/08/27 02:31:27;;;;;;;19.75;8.05;;;17.10;99.90;;;;;;4972442;28;20030;-56
2022/08/27 02:33:53;;;;;;;18.48;8.50;;;17.20;99.90;;;;;;4972583;28;20035;-55
2022/08/27 02:36:18;;;;;;;17.85;8.57;;;17.30;99.90;;;;;;4972406;28;20050;-55
2022/08/27 02:38:45;;;;;;;17.70;8.90;;;17.30;99.90;;;;;;4972585;28;20074;-55
2022/08/27 02:41:11;;;;;;;15.15;8.00;;;17.20;99.90;;;;;;4971381;28;20030;-55
2022/08/27 02:43:37;;;;;;;16.75;9.00;;;17.20;99.90;;;;;;4972518;28;20086;-56
2022/08/27 02:46:02;;;;;;;16.48;8.00;;;17.30;99.90;;;;;;4972328;28;20074;-56
2022/08/27 02:48:28;;;;;;;16.25;8.25;;;17.20;99.90;;;;;;4972051;28;20517;-56
2022/08/27 02:50:54;;;;;;;16.05;8.10;;;17.20;99.90;;;;;;4972125;28;20122;-55
2022/08/27 02:53:20;;;;;;;19.15;8.45;;;17.10;99.90;;;;;;4972060;28;20102;-55
2022/08/27 02:55:47;;;;;;;20.80;9.10;;;17.00;99.90;;;;;;4971981;28;20085;-55
2022/08/27 02:58:15;;;;;;;;;;;16.80;99.90;;;;;;4972751;28;20023;-55
2022/08/27 03:00:42;;;;;;;18.40;8.20;;;16.90;99.90;;;;;;4972059;28;19910;-56
2022/08/27 03:03:09;;;;;;;15.45;8.50;;;17.00;99.90;;;;;;4971889;28;20027;-55
2022/08/27 03:05:35;;;;;;;21.15;8.52;;;17.00;99.90;;;;;;4971910;28;20889;-55
2022/08/27 03:08:02;;;;;;;16.70;8.50;;;16.80;99.90;;;;;;4972098;28;20131;-56
2022/08/27 03:10:28;;;;;;;19.13;7.97;;;16.80;99.90;;;;;;4971677;28;20105;-55
2022/08/27 03:12:54;;;;;;;19.60;8.48;;;16.80;99.90;;;;;;4971831;28;20030;-55
2022/08/27 03:15:20;;;;;;;20.52;8.50;;;16.70;99.90;;;;;;4971988;28;20035;-55
2022/08/27 03:20:32;;;;;;;12.77;7.95;;;16.70;99.90;;;;;;4971960;28;20046;-56
2022/08/27 03:22:58;;;;;;;12.25;7.60;;;16.80;99.90;;;;;;4971661;28;20034;-55
2022/08/27 03:25:24;;;;;;;19.60;8.37;;;16.80;99.90;;;;;;4971440;28;20057;-55
2022/08/27 03:27:51;;;;;;;23.25;7.90;;;16.80;99.90;;;;;;4971478;28;20141;-56
2022/08/27 03:30:20;;;;;;;18.02;7.97;;;16.80;99.90;;;;;;4982511;28;20624;-55
2022/08/27 03:32:46;;;;;;;15.90;7.75;;;16.80;99.90;;;;;;4990758;28;20022;-56
2022/08/27 03:35:13;;;;;;;13.23;7.55;;;16.80;99.90;;;;;;4990643;28;20125;-55
2022/08/27 03:37:38;;;;;;;14.38;7.82;;;16.80;99.90;;;;;;4990858;28;20034;-55
2022/08/27 03:40:06;;;;;;;16.23;8.10;;;16.70;99.90;;;;;;4991066;28;20042;-56
2022/08/27 03:42:33;;;;;;;16.30;7.75;;;16.70;99.90;;;;;;4990867;28;20049;-56
2022/08/27 03:44:59;;;;;;;14.73;7.80;;;16.70;99.90;;;;;;4990664;28;20721;-56
2022/08/27 03:47:25;;;;;;;16.52;8.45;;;16.70;99.90;;;;;;4990542;28;20181;-55
2022/08/27 03:49:51;;;;;;;18.20;8.85;;;16.60;99.90;;;;;;4990441;28;20077;-55
2022/08/27 03:52:16;;;;;;;12.98;7.65;;;16.60;99.90;;;;;;4990597;28;20613;-55
2022/08/27 03:54:42;;;;;;;18.77;8.00;;;16.60;99.90;;;;;;4990538;28;20019;-56
2022/08/27 03:57:08;;;;;;;13.90;8.38;;;16.50;99.90;;;;;;4990535;28;20041;-55
2022/08/27 03:59:34;;;;;;;13.00;8.35;;;16.40;99.90;;;;;;4990118;28;20027;-55
2022/08/27 04:02:00;;;;;;;16.15;8.40;;;16.40;99.90;;;;;;4990460;28;20545;-55
2022/08/27 04:04:26;;;;;;;15.40;8.43;;;16.40;99.90;;;;;;4990276;28;20125;-54
2022/08/27 04:06:52;;;;;;;18.73;8.35;;;16.40;99.90;;;;;;4989755;28;20129;-53
2022/08/27 04:09:18;;;;;;;14.10;8.25;;;16.40;99.90;;;;;;4980526;28;20040;-54
2022/08/27 04:11:44;;;;;;;16.42;8.80;;;16.40;99.90;;;;;;4976285;28;20034;-54
2022/08/27 04:14:09;;;;;;;20.73;9.60;;;16.40;99.90;;;;;;4979434;28;20023;-54
2022/08/27 04:16:36;;;;;;;16.00;8.57;;;16.40;99.90;;;;;;4980261;28;20540;-54
2022/08/27 04:19:02;;;;;;;18.83;9.02;;;16.50;99.90;;;;;;4978161;28;20050;-54
2022/08/27 04:21:28;;;;;;;16.05;8.48;;;16.50;99.90;;;;;;4979723;28;20522;-54
2022/08/27 04:23:55;;;;;;;17.55;8.43;;;16.50;99.90;;;;;;4980001;28;20038;-54
2022/08/27 04:26:21;;;;;;;23.53;9.17;;;16.60;99.90;;;;;;4978020;28;20498;-55
2022/08/27 04:28:47;;;;;;;15.90;8.60;;;16.60;99.90;;;;;;4979874;28;20018;-54
2022/08/27 04:31:13;;;;;;;19.42;9.13;;;16.70;99.90;;;;;;4979733;28;20019;-54
2022/08/27 04:33:39;;;;;;;14.68;8.25;;;16.70;99.90;;;;;;4977885;28;20049;-54
2022/08/27 04:36:07;;;;;;;17.55;7.80;;;16.80;99.90;;;;;;4980078;28;20481;-53
2022/08/27 04:38:33;;;;;;;13.85;8.52;;;16.80;99.90;;;;;;4979787;28;20035;-51
2022/08/27 04:41:26;;;;;;;16.40;8.75;;;16.80;99.90;;;;;;4978504;28;20038;-59
2022/08/27 04:43:58;;;;;;;19.65;9.15;;;16.80;99.90;;;;;;4979403;28;20031;-52
2022/08/27 04:46:29;;;;;;;19.70;9.43;;;16.70;99.90;;;;;;4975606;28;20054;-52
2022/08/27 04:49:00;;;;;;;17.17;9.13;;;16.50;99.90;;;;;;4978408;28;20085;-55
2022/08/27 04:51:27;;;;;;;17.45;8.55;;;16.50;99.90;;;;;;4976134;28;20025;-54
2022/08/27 04:53:54;;;;;;;17.15;8.88;;;16.40;99.90;;;;;;4978715;28;20085;-53
2022/08/27 04:56:21;;;;;;;14.97;8.60;;;16.50;99.90;;;;;;4980126;28;20022;-54
2022/08/27 04:58:48;;;;;;;;;;;16.60;99.90;;;;;;4978936;28;20306;-54
2022/08/27 05:01:19;;;;;;;22.70;9.27;;;16.60;99.90;;;;;;4978992;28;20337;-54
2022/08/27 05:03:45;;;;;;;16.88;8.95;;;16.70;99.90;;;;;;4975927;28;20041;-54
2022/08/27 05:06:11;;;;;;;13.90;8.43;;;16.80;99.90;;;;;;4978617;28;20505;-51
2022/08/27 05:08:38;;;;;;;21.05;10.95;;;16.80;99.90;;;;;;4985779;28;20029;-52
2022/08/27 05:11:11;;;;;;;20.17;8.88;;;17.00;99.90;;;;;;4989989;28;20054;-55
2022/08/27 05:13:38;;;;;;;16.33;8.18;;;17.00;99.90;;;;;;4992871;28;20108;-54
2022/08/27 05:16:06;;;;;;;15.70;9.13;;;17.00;99.90;;;;;;4993386;28;20418;-54
2022/08/27 05:18:33;;;;;;;16.20;8.25;;;17.10;99.90;;;;;;4993359;28;20037;-56
2022/08/27 05:21:00;;;;;;;18.23;8.15;;;17.10;99.90;;;;;;4993339;28;20057;-56
2022/08/27 05:23:29;;;;;;;15.50;7.88;;;17.20;99.90;;;;;;4980032;28;20506;-56
2022/08/27 05:25:56;;;;;;;14.52;8.85;;;17.20;99.90;;;;;;4973775;28;20050;-56
2022/08/27 05:28:24;;;;;;;21.98;9.10;;;17.40;99.90;;;;;;4973642;28;20501;-56
2022/08/27 05:30:53;;;;;;;19.08;8.88;;;17.50;99.90;;;;;;4973629;28;20049;-56
2022/08/27 05:33:24;;;;;;;20.70;9.40;;;17.50;99.90;;;;;;4973448;28;20023;-56
2022/08/27 05:35:53;;;;;;;21.90;11.00;;;17.50;99.90;;;;;;4973275;28;20030;-56
2022/08/27 05:38:20;;;;;;;18.25;10.60;;;17.50;99.90;;;;;;4973352;28;20038;-53
2022/08/27 05:40:47;;;;;;;17.75;11.38;;;17.60;99.90;;;;;;4971900;28;20553;-54
2022/08/27 05:43:14;;;;;;;18.60;10.07;;;17.70;99.90;;;;;;4973365;28;20122;-55
2022/08/27 05:45:42;;;;;;;22.13;10.77;;;17.80;99.90;;;;;;4973227;28;20487;-54
2022/08/27 05:48:10;;;;;;;19.17;9.80;;;17.90;99.90;;;;;;4973350;28;20031;-54
2022/08/27 05:50:40;;;;;;;15.90;9.45;;;18.00;99.90;;;;;;4973147;28;20109;-55
2022/08/27 05:53:06;;;;;;;13.35;8.10;;;18.10;99.90;;;;;;4973514;28;20030;-54
2022/08/27 05:55:41;;;;;;;18.38;9.80;;;18.20;99.90;;;;;;4976758;28;20031;-54
2022/08/27 06:01:03;;;;;;;21.75;9.65;;;18.30;99.90;;;;;;4981308;28;20053;-55
2022/08/27 06:01:05;;;;;;;16.88;8.50;;;18.40;99.90;;;;;;4979473;28;20031;-54
2022/08/27 06:03:33;;;;;;;15.15;8.75;;;18.50;99.90;;;;;;4978989;28;20022;-55
2022/08/27 06:06:05;;;;;;;22.13;9.40;;;18.60;99.90;;;;;;4981772;28;20058;-54
2022/08/27 06:08:31;;;;;;;20.10;9.68;;;18.70;99.90;;;;;;4978930;28;20027;-54
2022/08/27 06:11:00;;;;;;;19.85;9.38;;;18.80;99.90;;;;;;4982376;28;20060;-55
2022/08/27 06:13:29;;;;;;;16.70;10.02;;;19.00;99.90;;;;;;4982804;28;20085;-55
2022/08/27 06:16:07;;;;;;;16.65;9.95;;;19.10;99.90;;;;;;4981742;28;20043;-56
2022/08/27 06:18:37;;;;;;;17.25;8.98;;;19.20;99.90;;;;;;4978131;28;20050;-55
2022/08/27 06:21:04;;;;;;;16.80;9.10;;;19.30;99.90;;;;;;4982706;28;20030;-55
2022/08/27 06:23:30;;;;;;;16.25;9.27;;;19.40;99.90;;;;;;4980309;28;20038;-55
2022/08/27 06:25:57;;;;;;;16.20;9.00;;;19.60;99.90;;;;;;4981984;28;20048;-55
2022/08/27 06:28:28;;;;;;;18.27;9.95;;;19.70;99.90;;;;;;4982480;28;20023;-56
2022/08/27 06:31:08;;;;;;;20.02;9.27;;;19.90;99.90;;;;;;4979301;28;20026;-55
2022/08/27 06:33:34;;;;;;;18.52;9.68;;;20.00;99.90;;;;;;4979068;28;20736;-56
2022/08/27 06:36:02;;;;;;;17.15;8.80;;;20.10;99.90;;;;;;4981293;28;20030;-55
2022/08/27 06:38:28;;;;;;;18.73;9.73;;;20.10;99.90;;;;;;4982755;28;20149;-55
2022/08/27 06:40:57;;;;;;;17.00;8.60;;;20.30;99.90;;;;;;4981242;28;20101;-55
2022/08/27 06:43:23;;;;;;;20.92;9.82;;;20.50;99.90;;;;;;4980907;28;20118;-55
2022/08/27 06:45:50;;;;;;;20.33;8.73;;;20.50;99.90;;;;;;4982353;28;20086;-55
2022/08/27 06:48:19;;;;;;;21.30;10.10;;;20.60;99.90;;;;;;4981185;28;20101;-55
2022/08/27 06:50:45;;;;;;;26.42;9.52;;;20.60;99.90;;;;;;4980511;28;20042;-56
2022/08/27 06:53:11;;;;;;;18.92;9.60;;;20.60;99.90;;;;;;4977724;28;20356;-56
2022/08/27 06:55:42;;;;;;;17.80;9.68;;;20.60;99.90;;;;;;4981560;28;20528;-56
2022/08/27 06:58:09;;;;;;;19.48;9.90;;;20.60;99.90;;;;;;4982288;28;20418;-54
2022/08/27 07:00:36;;;;;;;16.02;9.23;;;20.70;99.90;;;;;;4980781;28;20058;-55
2022/08/27 07:03:04;;;;;;;15.27;9.65;;;20.80;99.90;;;;;;4980951;28;20081;-54
2022/08/27 07:05:34;;;;;;;16.48;10.00;;;21.00;99.90;;;;;;4981853;28;20042;-54
2022/08/27 07:08:00;;;;;;;20.65;10.23;;;21.10;99.90;;;;;;4981756;28;20030;-55
2022/08/27 07:10:27;;;;;;;18.60;10.43;;;21.10;99.90;;;;;;4980116;28;20035;-54
2022/08/27 07:12:53;;;;;;;17.90;10.75;;;21.20;99.90;;;;;;4981893;28;20098;-54
2022/08/27 07:15:19;;;;;;;19.33;9.95;;;21.20;99.90;;;;;;4981037;28;20023;-54
2022/08/27 07:17:44;;;;;;;18.90;9.95;;;21.20;99.90;;;;;;4980063;28;20405;-54
2022/08/27 07:20:12;;;;;;;16.30;10.65;;;21.20;99.90;;;;;;4981619;28;20063;-55
2022/08/27 07:22:45;;;;;;;21.30;10.05;;;21.20;99.90;;;;;;4980814;28;20023;-54
2022/08/27 07:25:15;;;;;;;16.10;9.38;;;21.30;99.90;;;;;;4977042;28;20042;-55
2022/08/27 07:27:41;;;;;;;20.92;10.25;;;21.30;99.90;;;;;;4980227;28;20022;-55
2022/08/27 07:30:10;;;;;;;26.00;10.50;;;21.30;99.90;;;;;;4981817;28;20093;-54
2022/08/27 07:32:37;;;;;;;19.48;10.32;;;21.40;99.90;;;;;;4980667;28;20081;-54
2022/08/27 07:35:03;;;;;;;26.08;11.65;;;21.50;99.90;;;;;;4980011;28;20558;-54
2022/08/27 07:37:28;;;;;;;26.95;10.88;;;21.70;99.90;;;;;;4982269;28;20094;-54
2022/08/27 07:39:54;;;;;;;20.73;11.48;;;21.70;99.90;;;;;;4975405;28;20490;-55
2022/08/27 07:45:04;;;;;;;19.25;10.82;;;21.90;99.90;;;;;;4975343;28;20086;-55
2022/08/27 07:47:31;;;;;;;19.60;11.05;;;22.00;99.90;;;;;;4973515;28;20042;-55
2022/08/27 07:49:57;;;;;;;23.23;12.15;;;22.00;99.90;;;;;;4970716;28;20035;-55
2022/08/27 07:52:23;;;;;;;20.98;11.20;;;22.10;99.90;;;;;;4970722;28;20030;-56
2022/08/27 07:54:51;;;;;;;26.55;11.07;;;22.20;99.90;;;;;;4978764;28;20468;-55
2022/08/27 07:57:17;;;;;;;20.92;10.82;;;22.40;99.90;;;;;;4980633;28;20050;-54
2022/08/27 07:59:42;;;;;;;21.55;11.55;;;22.50;99.90;;;;;;4977984;28;20054;-54
2022/08/27 08:02:08;;;;;;;23.88;11.65;;;22.50;99.90;;;;;;4979155;28;20042;-54
2022/08/27 08:04:34;;;;;;;19.70;10.98;;;22.50;99.90;;;;;;4980776;28;20098;-54
2022/08/27 08:07:00;;;;;;;22.15;11.57;;;22.60;99.90;;;;;;4980453;28;20105;-54
2022/08/27 08:09:26;;;;;;;20.08;10.70;;;22.80;99.90;;;;;;4977753;28;20544;-54
2022/08/27 08:11:52;;;;;;;19.60;11.52;;;23.00;99.90;;;;;;4976864;28;20569;-55
2022/08/27 08:14:19;;;;;;;24.85;12.00;;;23.10;99.90;;;;;;4979976;28;20033;-54
2022/08/27 08:16:45;;;;;;;24.45;11.68;;;23.10;99.90;;;;;;4980998;28;20153;-54
2022/08/27 08:19:11;;;;;;;21.02;11.07;;;23.10;99.90;;;;;;4979001;28;20482;-55
2022/08/27 08:21:37;;;;;;;21.98;11.48;;;23.20;99.90;;;;;;4979183;28;20540;-54
2022/08/27 08:24:04;;;;;;;24.05;11.80;;;23.40;99.90;;;;;;4979742;28;20035;-54
2022/08/27 08:26:30;;;;;;;21.35;10.90;;;23.50;99.90;;;;;;4978686;28;20141;-55
2022/08/27 08:28:56;;;;;;;17.85;10.18;;;23.70;99.90;;;;;;4979710;28;20034;-54
2022/08/27 08:31:22;;;;;;;22.15;9.63;;;24.00;99.90;;;;;;4980863;28;20023;-54
2022/08/27 08:33:49;;;;;;;18.90;11.33;;;23.80;99.90;;;;;;4979330;28;20019;-54
2022/08/27 08:36:16;;;;;;;26.70;10.73;;;24.00;99.90;;;;;;4973076;28;20266;-55
2022/08/27 08:38:43;;;;;;;18.95;10.57;;;24.00;99.90;;;;;;4974456;28;20085;-55
2022/08/27 08:41:27;;;;;;;18.88;9.73;;;24.20;99.90;;;;;;4980368;28;20061;-55
2022/08/27 08:43:54;;;;;;;18.48;9.02;;;24.20;99.90;;;;;;4975590;28;20093;-54
2022/08/27 08:46:39;;;;;;;16.17;8.93;;;24.30;99.90;;;;;;4980265;28;20050;-54
2022/08/27 08:49:25;;;;;;;20.38;10.23;;;24.30;99.90;;;;;;4976168;28;20109;-54
2022/08/27 08:51:55;;;;;;;20.67;9.57;;;24.50;99.90;;;;;;4962819;28;20045;-53
2022/08/27 08:54:23;;;;;;;19.60;10.20;;;24.40;99.90;;;;;;4975890;28;20019;-54
2022/08/27 08:56:58;;;;;;;20.63;9.80;;;24.60;99.90;;;;;;4988259;28;20077;-53
2022/08/27 08:59:24;;;;;;;18.83;10.73;;;24.80;99.90;;;;;;4981152;28;20034;-53
2022/08/27 09:01:50;;;;;;;21.65;11.30;;;24.60;99.90;;;;;;4971327;28;20386;-53
2022/08/27 09:04:16;;;;;;;24.17;10.98;;;24.70;99.90;;;;;;4978148;28;20558;-53
2022/08/27 09:06:53;;;;;;;22.92;10.88;;;25.00;99.90;;;;;;4982706;28;20144;-53
2022/08/27 09:09:26;;;;;;;18.75;11.88;;;24.70;99.90;;;;;;4977890;28;20573;-53
2022/08/27 09:12:02;;;;;;;18.80;11.05;;;24.90;99.90;;;;;;4987127;28;20022;-53
2022/08/27 09:14:41;;;;;;;21.80;11.25;;;25.20;99.90;;;;;;4986115;28;20026;-54
2022/08/27 09:17:07;;;;;;;18.25;10.68;;;25.10;99.90;;;;;;4984495;28;20026;-55
2022/08/27 09:19:33;;;;;;;17.92;11.63;;;25.00;99.90;;;;;;4973136;28;20109;-56
2022/08/27 09:22:50;;;;;;;22.23;12.55;;;25.20;99.90;;;;;;4973335;28;20126;-56
2022/08/27 09:25:27;;;;;;;23.20;11.93;;;25.10;99.90;;;;;;4969218;28;20092;-55
2022/08/27 09:27:56;;;;;;;18.13;11.63;;;25.40;99.90;;;;;;4974919;28;20046;-55
2022/08/27 09:30:28;;;;;;;19.92;11.50;;;25.30;99.90;;;;;;4983446;28;20031;-55
2022/08/27 09:33:03;;;;;;;22.42;13.27;;;25.00;99.90;;;;;;4978437;28;20023;-55
2022/08/27 09:35:43;;;;;;;23.25;13.32;;;24.80;99.90;;;;;;4964130;28;20051;-56
2022/08/27 09:38:12;;;;;;;25.00;12.00;;;24.70;99.90;;;;;;4981816;28;20105;-56
2022/08/27 09:40:44;;;;;;;22.20;10.77;;;25.30;99.90;;;;;;4983250;28;20088;-56
2022/08/27 09:43:16;;;;;;;19.08;10.48;;;25.30;99.90;;;;;;4978744;28;20030;-55
2022/08/27 09:45:51;;;;;;;18.98;11.98;;;25.40;99.90;;;;;;4969249;28;20047;-56
2022/08/27 09:48:25;;;;;;;21.33;10.95;;;25.70;99.90;;;;;;4974627;28;20085;-56
2022/08/27 09:51:00;;;;;;;16.33;10.63;;;26.30;99.90;;;;;;4980797;28;20089;-56
2022/08/27 09:53:49;;;;;;;16.00;9.50;;;26.80;99.90;;;;;;4973510;28;20031;-54
2022/08/27 09:56:36;;;;;;;14.55;9.80;;;27.00;99.90;;;;;;4978596;28;20054;-55
2022/08/27 09:59:06;;;;;;;16.20;8.95;;;27.50;99.90;;;;;;4975636;28;20031;-54
2022/08/27 10:01:37;;;;;;;15.80;8.52;;;27.60;99.90;;;;;;4974429;28;20031;-54
2022/08/27 10:04:07;;;;;;;21.85;8.60;;;27.40;99.90;;;;;;4971525;28;20042;-55
2022/08/27 10:06:32;;;;;;;11.88;7.13;;;27.50;99.90;;;;;;4965219;28;20113;-55
2022/08/27 10:09:13;;;;;;;12.80;6.32;;;28.10;99.90;;;;;;4972847;28;20558;-55
2022/08/27 10:12:05;;;;;;;13.80;6.53;;;28.40;99.90;;;;;;4974060;28;20092;-53
2022/08/27 10:14:37;;;;;;;12.38;6.30;;;28.80;99.90;;;;;;4968717;28;20094;-53
2022/08/27 10:17:06;;;;;;;11.15;6.03;;;28.80;99.90;;;;;;4981014;28;20034;-53
2022/08/27 10:20:05;;;;;;;14.02;6.72;;;28.70;98.60;;;;;;4976593;28;20573;-53
2022/08/27 10:22:54;;;;;;;14.38;6.25;;;29.10;97.80;;;;;;4972105;28;20042;-53
2022/08/27 10:26:06;;;;;;;14.63;5.68;;;29.10;96.80;;;;;;4986833;28;20042;-54
2022/08/27 10:28:47;;;;;;;10.27;6.03;;;29.30;94.50;;;;;;4975686;28;20034;-53
2022/08/27 10:31:22;;;;;;;14.07;5.85;;;29.50;95.50;;;;;;4978707;28;20029;-54
2022/08/27 10:34:07;;;;;;;8.60;5.13;;;30.30;96.70;;;;;;4980916;28;20030;-54
2022/08/27 10:36:38;;;;;;;11.93;4.97;;;30.40;94.40;;;;;;4978498;28;20026;-53
2022/08/27 10:39:26;;;;;;;72.53;64.47;;;30.60;92.70;;;;;;4974865;28;20498;-53
2022/08/27 10:42:16;;;;;;;13.90;4.88;;;30.40;92.60;;;;;;4982734;28;20018;-54
2022/08/27 10:44:51;;;;;;;9.55;3.47;;;30.90;88.90;;;;;;4988068;28;20038;-54
2022/08/27 10:47:31;;;;;;;6.82;3.90;;;30.90;82.40;;;;;;4986696;28;20053;-55
2022/08/27 10:50:10;;;;;;;8.30;3.75;;;30.80;79.50;;;;;;4982654;28;20038;-54
2022/08/27 10:52:46;;;;;;;13.35;3.00;;;30.80;76.70;;;;;;4977074;28;20037;-54
2022/08/27 10:55:25;;;;;;;10.75;3.80;;;31.00;78.30;;;;;;4980284;28;20023;-54
2022/08/27 10:58:15;;;;;;;8.30;3.65;;;31.60;78.40;;;;;;4979585;28;20062;-54
2022/08/27 11:01:12;;;;;;;8.15;3.40;;;31.80;78.70;;;;;;4978810;28;20027;-54
2022/08/27 11:03:57;;;;;;;9.02;3.13;;;31.40;75.30;;;;;;4977406;28;20037;-54
2022/08/27 11:06:38;;;;;;;6.30;2.70;;;31.00;72.60;;;;;;4979892;28;20034;-55
2022/08/27 11:09:13;;;;;;;8.60;3.15;;;31.60;72.20;;;;;;4977003;28;20552;-54
2022/08/27 11:11:45;;;;;;;9.60;2.90;;;30.50;67.70;;;;;;4981562;28;20105;-54
2022/08/27 11:14:37;;;;;;;12.27;2.97;;;29.90;72.60;;;;;;4984321;28;20109;-55
2022/08/27 11:17:18;;;;;;;9.20;3.17;;;29.80;74.30;;;;;;4984424;28;20029;-55
2022/08/27 11:19:54;;;;;;;4.65;3.17;;;29.60;74.40;;;;;;4983679;28;20023;-55
2022/08/27 11:22:26;;;;;;;6.60;3.47;;;30.10;83.20;;;;;;4983120;28;20029;-56
2022/08/27 11:25:13;;;;;;;8.52;3.40;;;30.50;80.90;;;;;;4980384;28;20033;-56
2022/08/27 11:27:40;;;;;;;9.15;3.88;;;31.10;79.20;;;;;;4984666;28;20085;-56
2022/08/27 11:30:24;;;;;;;12.90;3.78;;;31.40;78.00;;;;;;4983704;28;20022;-55
2022/08/27 11:33:19;;;;;;;8.07;3.45;;;31.20;75.70;;;;;;4984473;28;20038;-56
2022/08/27 11:35:56;;;;;;;7.28;3.42;;;31.30;75.70;;;;;;4984038;28;20103;-56
2022/08/27 11:38:44;;;;;;;6.22;3.78;;;31.30;73.40;;;;;;4976695;28;20129;-55
2022/08/27 11:41:44;;;;;;;9.18;3.55;;;31.50;77.90;;;;;;4980721;28;20402;-55
2022/08/27 11:44:15;;;;;;;6.90;3.35;;;31.90;76.70;;;;;;4980896;28;20034;-56
2022/08/27 11:46:50;;;;;;;10.25;4.05;;;32.80;70.60;;;;;;4979912;28;20102;-56
2022/08/27 11:49:28;;;;;;;10.68;3.25;;;32.70;73.50;;;;;;4960395;28;20029;-56
2022/08/27 11:52:03;;;;;;;6.45;3.30;;;32.50;69.70;;;;;;4976793;28;20030;-56
2022/08/27 11:54:43;;;;;;;7.97;3.58;;;32.50;66.00;;;;;;4953519;28;20130;-56
2022/08/27 11:57:28;;;;;;;9.48;3.85;;;32.40;74.30;;;;;;4979505;28;20026;-55
2022/08/27 11:59:54;;;;;;;8.70;3.45;;;32.30;69.00;;;;;;4975625;28;20383;-54
2022/08/27 12:02:21;;;;;;;8.53;3.40;;;32.40;69.80;;;;;;4971289;28;20027;-55
2022/08/27 12:04:47;;;;;;;6.32;3.13;;;32.50;72.20;;;;;;4971023;28;20112;-53
2022/08/27 12:07:13;;;;;;;10.68;3.53;;;31.70;71.40;;;;;;4975934;28;20065;-55
2022/08/27 12:09:55;;;;;;;15.57;3.65;;;30.90;70.70;;;;;;4979765;28;20058;-60
2022/08/27 12:12:29;;;;;;;8.20;3.90;;;30.90;72.90;;;;;;4978606;28;20118;-55
2022/08/27 12:15:28;;;;;;;9.48;3.60;;;30.80;71.60;;;;;;4978588;28;20034;-55
2022/08/27 12:18:28;;;;;;;9.57;3.88;;;30.60;71.30;;;;;;4981075;28;20019;-55
2022/08/27 12:21:16;;;;;;;6.55;4.50;;;30.30;71.90;;;;;;4976858;28;20483;-56
2022/08/27 12:24:15;;;;;;;14.32;3.78;;;30.20;72.10;;;;;;4979720;28;20094;-56
2022/08/27 12:26:53;;;;;;;10.23;4.28;;;29.70;74.50;;;;;;4980053;28;20047;-56
2022/08/27 12:29:45;;;;;;;8.63;3.90;;;28.60;75.70;;;;;;4990370;28;20050;-56
2022/08/27 12:32:43;;;;;;;8.48;3.50;;;28.80;78.80;;;;;;4983858;28;20077;-56
2022/08/27 12:35:27;;;;;;;7.97;3.33;;;28.30;79.30;;;;;;4982085;28;20039;-55
2022/08/27 12:37:55;;;;;;;6.97;3.88;;;28.40;80.80;;;;;;4980838;28;20034;-55
2022/08/27 12:40:37;;;;;;;11.75;6.10;;;27.90;81.10;;;;;;4983740;28;20026;-55
2022/08/27 12:43:06;;;;;;;10.98;3.85;;;27.70;82.60;;;;;;4982881;28;20038;-55
2022/08/27 12:45:33;;;;;;;11.05;4.03;;;27.40;84.40;;;;;;4982285;28;20038;-54
2022/08/27 12:47:59;;;;;;;9.60;4.13;;;27.20;87.40;;;;;;4984488;28;20080;-54
2022/08/27 12:50:29;;;;;;;16.90;3.75;;;27.60;88.50;;;;;;4984448;28;20508;-54
2022/08/27 12:53:19;;;;;;;6.90;3.40;;;27.60;86.60;;;;;;4982915;28;20058;-54
2022/08/27 12:55:52;;;;;;;7.03;3.33;;;27.80;87.40;;;;;;4982889;28;20026;-55
2022/08/27 12:58:35;;;;;;;7.70;4.10;;;27.90;84.40;;;;;;4981309;28;20022;-54
2022/08/27 13:01:20;;;;;;;7.80;4.00;;;27.00;85.00;;;;;;4982084;28;20467;-54
2022/08/27 13:03:52;;;;;;;11.02;4.43;;;27.30;89.20;;;;;;4983027;28;20050;-54